createdAt,value
2023-04-30T00:01:18.369Z,9.42
2023-04-30T00:03:47.313Z,9.40
2023-04-30T00:06:16.630Z,9.39
2023-04-30T00:08:45.561Z,9.39
2023-04-30T00:11:14.413Z,9.39
2023-04-30T00:13:43.872Z,9.42
2023-04-30T00:16:12.749Z,9.44
2023-04-30T00:18:41.554Z,9.36
2023-04-30T00:21:10.550Z,9.45
2023-04-30T00:23:39.418Z,9.44
2023-04-30T00:26:08.228Z,9.42
2023-04-30T00:28:38.458Z,9.38
2023-04-30T00:31:09.326Z,9.34
2023-04-30T00:33:38.072Z,9.29
2023-04-30T00:36:07.605Z,9.26
2023-04-30T00:38:36.363Z,9.24
2023-04-30T00:41:05.144Z,9.21
2023-04-30T00:43:34.256Z,9.16
2023-04-30T00:46:03.907Z,9.09
2023-04-30T00:48:32.765Z,9.02
2023-04-30T00:51:01.926Z,8.94
2023-04-30T00:53:30.655Z,8.87
2023-04-30T00:55:59.855Z,8.79
2023-04-30T00:58:28.569Z,8.69
2023-04-30T01:00:57.397Z,8.61
2023-04-30T01:03:26.330Z,8.51
2023-04-30T01:05:55.322Z,8.43
2023-04-30T01:08:24.374Z,8.37
2023-04-30T01:10:55.623Z,8.33
2023-04-30T01:13:26.919Z,8.31
2023-04-30T01:15:58.359Z,8.27
2023-04-30T01:18:29.403Z,8.23
2023-04-30T01:20:59.557Z,8.20
2023-04-30T01:23:34.410Z,8.17
2023-04-30T01:26:07.853Z,8.11
2023-04-30T01:28:37.487Z,8.06
2023-04-30T01:31:07.951Z,8.01
2023-04-30T01:33:36.760Z,7.96
2023-04-30T01:36:18.137Z,7.91
2023-04-30T01:38:50.440Z,7.88
2023-04-30T01:41:21.353Z,7.91
2023-04-30T01:43:55.108Z,7.94
2023-04-30T01:46:27.359Z,7.98
2023-04-30T01:48:59.084Z,7.99
2023-04-30T01:51:30.808Z,7.98
2023-04-30T01:54:00.343Z,7.94
2023-04-30T01:56:33.667Z,7.91
2023-04-30T01:59:02.530Z,7.90
2023-04-30T02:01:32.000Z,7.90
2023-04-30T02:04:01.629Z,7.92
2023-04-30T02:06:31.301Z,7.92
2023-04-30T02:09:05.306Z,7.90
2023-04-30T02:11:34.258Z,7.86
2023-04-30T02:14:03.151Z,7.86
2023-04-30T02:16:32.179Z,7.85
2023-04-30T02:19:02.702Z,7.85
2023-04-30T02:21:31.762Z,7.89
2023-04-30T02:24:00.534Z,7.93
2023-04-30T02:26:29.286Z,7.95
2023-04-30T02:28:57.968Z,7.95
2023-04-30T02:31:26.834Z,7.93
2023-04-30T02:33:55.544Z,7.92
2023-04-30T02:36:24.791Z,7.90
2023-04-30T02:38:53.606Z,7.89
2023-04-30T02:41:22.703Z,7.89
2023-04-30T02:43:51.578Z,7.89
2023-04-30T02:46:20.471Z,7.88
2023-04-30T02:48:49.305Z,7.86
2023-04-30T02:51:18.374Z,7.83
2023-04-30T02:53:47.694Z,7.81
2023-04-30T02:56:16.561Z,7.80
2023-04-30T02:58:45.458Z,7.81
2023-04-30T03:01:14.594Z,7.77
2023-04-30T03:03:43.527Z,7.87
2023-04-30T03:06:13.007Z,7.92
2023-04-30T03:08:41.882Z,7.96
2023-04-30T03:11:10.675Z,7.98
2023-04-30T03:13:39.446Z,7.99
2023-04-30T03:16:08.514Z,8.00
2023-04-30T03:18:37.364Z,8.05
2023-04-30T03:21:06.329Z,8.09
2023-04-30T03:23:35.078Z,8.12
2023-04-30T03:26:04.015Z,8.14
2023-04-30T03:28:32.841Z,8.16
2023-04-30T03:31:05.855Z,8.18
2023-04-30T03:33:35.056Z,8.20
2023-04-30T03:36:04.072Z,8.23
2023-04-30T03:38:32.872Z,8.26
2023-04-30T03:41:01.658Z,8.28
2023-04-30T03:43:30.568Z,8.27
2023-04-30T03:45:59.792Z,8.24
2023-04-30T03:48:28.525Z,8.23
2023-04-30T03:50:57.355Z,8.17
2023-04-30T03:53:26.851Z,8.18
2023-04-30T03:55:55.768Z,8.16
2023-04-30T03:58:24.510Z,8.16
2023-04-30T04:00:53.417Z,8.16
2023-04-30T04:03:22.306Z,8.13
2023-04-30T04:05:51.387Z,8.10
2023-04-30T04:08:20.191Z,8.07
2023-04-30T04:10:49.585Z,8.05
2023-04-30T04:13:18.506Z,8.02
2023-04-30T04:15:47.421Z,8.03
2023-04-30T04:18:16.291Z,8.11
2023-04-30T04:20:45.283Z,8.18
2023-04-30T04:23:14.196Z,8.24
2023-04-30T04:25:44.326Z,8.29
2023-04-30T04:28:13.616Z,8.38
2023-04-30T04:30:42.538Z,8.47
2023-04-30T04:33:11.747Z,8.56
2023-04-30T04:35:40.638Z,8.77
2023-04-30T04:38:09.360Z,9.11
2023-04-30T04:40:38.319Z,9.54
2023-04-30T04:43:07.462Z,9.99
2023-04-30T04:45:37.720Z,10.43
2023-04-30T04:48:06.884Z,10.83
2023-04-30T04:50:36.088Z,11.22
2023-04-30T04:53:04.796Z,11.59
2023-04-30T04:55:33.673Z,11.94
2023-04-30T04:58:02.435Z,12.24
2023-04-30T05:00:31.164Z,12.41
2023-04-30T05:02:59.979Z,12.49
2023-04-30T05:05:28.790Z,12.69
2023-04-30T05:07:57.685Z,13.06
2023-04-30T05:10:26.382Z,13.27
2023-04-30T05:12:55.192Z,13.48
2023-04-30T05:15:23.899Z,13.68
2023-04-30T05:17:52.684Z,13.90
2023-04-30T05:20:21.406Z,14.09
2023-04-30T05:22:50.401Z,14.19
2023-04-30T05:25:19.535Z,14.24
2023-04-30T05:27:48.303Z,14.36
2023-04-30T05:30:17.026Z,14.62
2023-04-30T05:32:50.628Z,14.78
2023-04-30T05:35:19.474Z,14.72
2023-04-30T05:37:48.356Z,14.76
2023-04-30T05:40:17.386Z,14.77
2023-04-30T05:42:46.105Z,14.94
2023-04-30T05:45:17.157Z,15.19
2023-04-30T05:47:46.303Z,15.35
2023-04-30T05:50:15.223Z,15.18
2023-04-30T05:52:44.185Z,15.10
2023-04-30T05:55:12.980Z,15.22
2023-04-30T05:57:42.290Z,15.41
2023-04-30T06:00:12.613Z,15.33
2023-04-30T06:02:41.752Z,15.33
2023-04-30T06:05:11.745Z,15.48
2023-04-30T06:07:41.582Z,15.56
2023-04-30T06:10:12.551Z,15.76
2023-04-30T06:12:41.335Z,16.06
2023-04-30T06:15:11.640Z,16.56
2023-04-30T06:17:40.549Z,16.86
2023-04-30T06:20:10.218Z,16.91
2023-04-30T06:22:41.024Z,16.95
2023-04-30T06:25:10.891Z,17.06
2023-04-30T06:27:39.907Z,17.19
2023-04-30T06:30:09.974Z,17.33
2023-04-30T06:32:38.865Z,17.38
2023-04-30T06:35:08.132Z,17.42
2023-04-30T06:37:38.044Z,17.26
2023-04-30T06:40:08.152Z,16.99
2023-04-30T06:42:37.503Z,16.98
2023-04-30T06:45:07.491Z,17.06
2023-04-30T06:47:38.088Z,17.06
2023-04-30T06:50:07.526Z,17.14
2023-04-30T06:52:36.348Z,17.26
2023-04-30T06:55:05.815Z,17.32
2023-04-30T06:57:34.638Z,17.40
2023-04-30T07:00:04.059Z,17.57
2023-04-30T07:02:32.877Z,17.75
2023-04-30T07:05:02.015Z,17.96
2023-04-30T07:07:31.343Z,18.14
2023-04-30T07:10:00.331Z,18.33
2023-04-30T07:12:29.169Z,18.36
2023-04-30T07:14:58.039Z,18.48
2023-04-30T07:17:27.837Z,18.52
2023-04-30T07:19:57.087Z,18.43
2023-04-30T07:22:26.180Z,18.25
2023-04-30T07:24:55.096Z,18.03
2023-04-30T07:27:24.202Z,18.19
2023-04-30T07:29:53.783Z,18.38
2023-04-30T07:32:23.033Z,18.40
2023-04-30T07:34:52.294Z,18.26
2023-04-30T07:37:21.808Z,18.34
2023-04-30T07:39:50.839Z,18.43
2023-04-30T07:42:19.852Z,18.39
2023-04-30T07:44:49.241Z,18.26
2023-04-30T07:47:18.537Z,18.11
2023-04-30T07:49:47.869Z,18.27
2023-04-30T07:52:16.712Z,18.25
2023-04-30T07:54:45.539Z,18.07
2023-04-30T07:57:14.568Z,18.03
2023-04-30T07:59:43.422Z,18.04
2023-04-30T08:02:12.286Z,18.04
2023-04-30T08:04:41.233Z,17.94
2023-04-30T08:07:10.264Z,17.82
2023-04-30T08:09:39.322Z,17.82
2023-04-30T08:12:08.069Z,17.86
2023-04-30T08:14:36.844Z,17.73
2023-04-30T08:17:05.621Z,17.50
2023-04-30T08:19:34.657Z,17.41
2023-04-30T08:22:03.410Z,17.53
2023-04-30T08:24:32.181Z,17.74
2023-04-30T08:27:04.146Z,17.74
2023-04-30T08:29:32.872Z,17.59
2023-04-30T08:32:02.095Z,17.59
2023-04-30T08:34:30.961Z,17.57
2023-04-30T08:37:00.321Z,17.58
2023-04-30T08:39:29.063Z,17.66
2023-04-30T08:41:58.064Z,17.76
2023-04-30T08:44:27.068Z,17.84
2023-04-30T08:46:56.222Z,17.94
2023-04-30T08:49:25.193Z,18.03
2023-04-30T08:51:54.454Z,17.90
2023-04-30T08:54:23.232Z,17.73
2023-04-30T08:56:52.015Z,17.76
2023-04-30T08:59:21.430Z,17.82
2023-04-30T09:01:52.167Z,17.82
2023-04-30T09:04:22.546Z,17.92
2023-04-30T09:06:53.063Z,17.93
2023-04-30T09:09:21.853Z,17.92
2023-04-30T09:11:50.647Z,17.86
2023-04-30T09:14:23.542Z,17.81
2023-04-30T09:16:54.078Z,17.63
2023-04-30T09:19:27.184Z,17.75
2023-04-30T09:21:56.179Z,17.77
2023-04-30T09:24:25.360Z,17.80
2023-04-30T09:26:54.604Z,17.90
2023-04-30T09:29:24.015Z,18.08
2023-04-30T09:31:52.824Z,18.17
2023-04-30T09:34:22.275Z,18.11
2023-04-30T09:36:55.003Z,18.09
2023-04-30T09:39:24.062Z,18.26
2023-04-30T09:41:52.912Z,18.30
2023-04-30T09:44:31.123Z,18.35
2023-04-30T09:47:00.168Z,18.22
2023-04-30T09:49:29.063Z,18.23
2023-04-30T09:51:58.507Z,18.40
2023-04-30T09:54:28.673Z,18.58
2023-04-30T09:56:59.104Z,18.53
2023-04-30T09:59:30.739Z,18.51
2023-04-30T10:02:01.045Z,18.45
2023-04-30T10:04:31.966Z,18.30
2023-04-30T10:07:01.295Z,18.33
2023-04-30T10:09:31.239Z,18.48
2023-04-30T10:12:00.093Z,18.55
2023-04-30T10:14:28.861Z,18.62
2023-04-30T10:16:58.781Z,18.75
2023-04-30T10:19:27.890Z,18.85
2023-04-30T10:21:56.725Z,18.96
2023-04-30T10:24:25.510Z,19.10
2023-04-30T10:26:54.155Z,19.12
2023-04-30T10:29:23.528Z,19.11
2023-04-30T10:31:53.774Z,19.13
2023-04-30T10:34:29.959Z,19.13
2023-04-30T10:37:00.118Z,19.23
2023-04-30T10:39:29.117Z,19.37
2023-04-30T10:42:03.825Z,19.28
2023-04-30T10:44:34.920Z,19.16
2023-04-30T10:47:04.329Z,18.99
2023-04-30T10:49:33.384Z,18.95
2023-04-30T10:52:03.597Z,19.08
2023-04-30T10:54:33.014Z,19.11
2023-04-30T10:57:12.215Z,19.00
2023-04-30T10:59:41.199Z,18.85
2023-04-30T11:02:09.955Z,18.85
2023-04-30T11:04:39.397Z,18.98
2023-04-30T11:07:11.495Z,19.05
2023-04-30T11:09:42.144Z,19.13
2023-04-30T11:12:14.753Z,19.23
2023-04-30T11:14:44.021Z,19.21
2023-04-30T11:17:13.374Z,19.18
2023-04-30T11:19:49.300Z,19.09
2023-04-30T11:22:23.020Z,19.00
2023-04-30T11:24:52.185Z,19.08
2023-04-30T11:27:23.073Z,19.17
2023-04-30T11:29:52.608Z,19.27
2023-04-30T11:32:21.726Z,19.32
2023-04-30T11:34:50.941Z,19.30
2023-04-30T11:37:21.894Z,19.20
2023-04-30T11:39:51.321Z,19.19
2023-04-30T11:42:20.162Z,19.32
2023-04-30T11:44:48.932Z,19.43
2023-04-30T11:47:17.632Z,19.35
2023-04-30T11:49:46.411Z,19.29
2023-04-30T11:52:15.249Z,19.26
2023-04-30T11:54:43.957Z,19.24
2023-04-30T11:57:12.669Z,19.24
2023-04-30T11:59:44.650Z,18.99
2023-04-30T12:02:16.428Z,19.05
2023-04-30T12:04:47.262Z,19.16
2023-04-30T12:07:15.972Z,19.27
2023-04-30T12:09:54.385Z,19.51
2023-04-30T12:12:29.071Z,19.64
2023-04-30T12:14:57.846Z,19.77
2023-04-30T12:17:34.060Z,19.81
2023-04-30T12:20:05.052Z,19.73
2023-04-30T12:22:33.817Z,19.71
2023-04-30T12:25:02.590Z,19.69
2023-04-30T12:27:31.874Z,19.66
2023-04-30T12:30:00.777Z,19.65
2023-04-30T12:32:30.297Z,19.62
2023-04-30T12:35:02.124Z,19.59
2023-04-30T12:37:30.993Z,19.53
2023-04-30T12:40:00.183Z,19.51
2023-04-30T12:42:34.891Z,19.56
2023-04-30T12:45:03.783Z,19.61
2023-04-30T12:47:32.595Z,19.70
2023-04-30T12:50:01.360Z,19.90
2023-04-30T12:52:30.121Z,20.14
2023-04-30T12:54:58.836Z,20.41
2023-04-30T12:57:27.677Z,20.66
2023-04-30T12:59:59.838Z,20.89
2023-04-30T13:02:29.460Z,20.97
2023-04-30T13:04:59.041Z,21.08
2023-04-30T13:07:27.780Z,21.12
2023-04-30T13:09:57.020Z,21.11
2023-04-30T13:15:12.093Z,21.26
2023-04-30T13:17:40.838Z,21.27
2023-04-30T13:20:11.787Z,21.40
2023-04-30T13:22:40.777Z,21.48
2023-04-30T13:25:10.477Z,21.50
2023-04-30T13:30:45.012Z,21.63
2023-04-30T13:33:41.329Z,21.79
2023-04-30T13:36:19.864Z,21.89
2023-04-30T13:38:48.602Z,21.94
2023-04-30T13:41:17.454Z,21.99
2023-04-30T13:43:47.723Z,22.20
2023-04-30T13:46:16.634Z,22.38
2023-04-30T13:48:48.085Z,22.51
2023-04-30T13:51:16.990Z,22.51
2023-04-30T13:53:45.957Z,22.20
2023-04-30T13:56:16.384Z,21.65
2023-04-30T13:58:45.412Z,21.57
2023-04-30T14:01:14.670Z,21.89
2023-04-30T14:03:44.353Z,22.14
2023-04-30T14:06:13.239Z,22.39
2023-04-30T14:08:42.108Z,22.68
2023-04-30T14:11:11.231Z,22.86
2023-04-30T14:13:40.047Z,23.01
2023-04-30T14:16:10.268Z,22.73
2023-04-30T14:18:39.321Z,23.08
2023-04-30T14:21:08.079Z,23.35
2023-04-30T14:23:38.639Z,22.75
2023-04-30T14:26:07.508Z,21.98
2023-04-30T14:28:38.949Z,22.30
2023-04-30T14:31:07.777Z,22.53
2023-04-30T14:33:36.498Z,22.40
2023-04-30T14:36:05.629Z,22.57
2023-04-30T14:38:34.318Z,22.80
2023-04-30T14:41:03.131Z,22.82
2023-04-30T14:43:31.917Z,22.79
2023-04-30T14:46:00.588Z,22.37
2023-04-30T14:48:29.368Z,21.79
2023-04-30T14:50:58.720Z,21.94
2023-04-30T14:53:28.224Z,22.02
2023-04-30T14:55:57.175Z,22.10
2023-04-30T14:58:26.499Z,22.36
2023-04-30T15:00:57.127Z,22.35
2023-04-30T15:03:26.475Z,22.22
2023-04-30T15:05:56.382Z,21.92
2023-04-30T15:08:26.282Z,21.30
2023-04-30T15:10:55.812Z,20.72
2023-04-30T15:13:25.127Z,20.16
2023-04-30T15:15:54.244Z,19.62
2023-04-30T15:18:24.228Z,19.52
2023-04-30T15:20:54.513Z,19.36
2023-04-30T15:23:24.007Z,19.28
2023-04-30T15:25:53.188Z,19.29
2023-04-30T15:28:24.781Z,19.21
2023-04-30T15:30:55.989Z,19.29
2023-04-30T15:33:28.834Z,19.28
2023-04-30T15:35:58.658Z,19.12
2023-04-30T15:38:28.456Z,18.87
2023-04-30T15:40:57.818Z,18.64
2023-04-30T15:43:27.206Z,18.43
2023-04-30T15:46:04.372Z,18.16
2023-04-30T15:48:33.590Z,17.91
2023-04-30T15:51:02.991Z,17.74
2023-04-30T15:53:32.602Z,17.58
2023-04-30T15:56:04.254Z,17.49
2023-04-30T15:58:33.857Z,17.44
2023-04-30T16:01:03.154Z,17.38
2023-04-30T16:03:32.319Z,17.33
2023-04-30T16:06:01.772Z,17.31
2023-04-30T16:08:31.482Z,17.28
2023-04-30T16:11:01.266Z,17.23
2023-04-30T16:13:30.104Z,17.13
2023-04-30T16:15:58.888Z,17.02
2023-04-30T16:18:29.843Z,16.92
2023-04-30T16:20:59.405Z,16.84
2023-04-30T16:23:29.608Z,16.76
2023-04-30T16:25:59.785Z,16.68
2023-04-30T16:28:30.202Z,16.62
2023-04-30T16:31:00.762Z,16.52
2023-04-30T16:33:35.538Z,16.42
2023-04-30T16:36:05.720Z,16.35
2023-04-30T16:38:35.045Z,16.30
2023-04-30T16:41:05.758Z,16.28
2023-04-30T16:43:35.627Z,16.29
2023-04-30T16:46:07.567Z,16.30
2023-04-30T16:48:37.687Z,16.34
2023-04-30T16:51:07.888Z,16.38
2023-04-30T16:53:38.782Z,16.42
2023-04-30T16:56:08.278Z,16.44
2023-04-30T16:58:37.983Z,16.45
2023-04-30T17:01:06.884Z,16.42
2023-04-30T17:03:36.032Z,16.37
2023-04-30T17:06:07.152Z,16.31
2023-04-30T17:08:35.956Z,16.23
2023-04-30T17:11:04.777Z,16.17
2023-04-30T17:13:33.673Z,16.11
2023-04-30T17:16:02.504Z,16.03
2023-04-30T17:18:31.415Z,15.97
2023-04-30T17:21:00.278Z,15.90
2023-04-30T17:23:29.003Z,15.82
2023-04-30T17:25:57.973Z,15.72
2023-04-30T17:28:26.742Z,15.63
2023-04-30T17:30:55.847Z,15.54
2023-04-30T17:33:26.463Z,15.46
2023-04-30T17:35:55.573Z,15.38
2023-04-30T17:38:24.391Z,15.28
2023-04-30T17:40:54.204Z,15.16
2023-04-30T17:43:23.008Z,15.11
2023-04-30T17:45:52.062Z,15.03
2023-04-30T17:48:20.813Z,14.93
2023-04-30T17:50:49.930Z,14.87
2023-04-30T17:53:18.677Z,14.81
2023-04-30T17:55:47.441Z,14.76
2023-04-30T17:58:16.243Z,14.73
2023-04-30T18:00:44.998Z,14.67
2023-04-30T18:03:13.815Z,14.61
2023-04-30T18:05:42.620Z,14.55
2023-04-30T18:08:11.566Z,14.48
2023-04-30T18:10:40.533Z,14.41
2023-04-30T18:13:10.387Z,14.34
2023-04-30T18:15:39.800Z,14.26
2023-04-30T18:18:09.203Z,14.15
2023-04-30T18:20:38.321Z,14.09
2023-04-30T18:23:09.248Z,13.97
2023-04-30T18:25:38.757Z,13.88
2023-04-30T18:28:08.691Z,13.81
2023-04-30T18:30:37.534Z,13.73
2023-04-30T18:33:07.163Z,13.64
2023-04-30T18:35:35.944Z,13.56
2023-04-30T18:38:09.151Z,13.48
2023-04-30T18:40:38.068Z,13.39
2023-04-30T18:43:07.370Z,13.32
2023-04-30T18:45:36.695Z,13.23
2023-04-30T18:48:05.975Z,13.17
2023-04-30T18:50:34.781Z,13.12
2023-04-30T18:53:04.221Z,13.06
2023-04-30T18:55:32.953Z,12.97
2023-04-30T18:58:01.778Z,12.89
2023-04-30T19:00:30.568Z,12.83
2023-04-30T19:03:00.369Z,12.76
2023-04-30T19:05:29.366Z,12.69
2023-04-30T19:07:58.138Z,12.64
2023-04-30T19:10:27.158Z,12.59
2023-04-30T19:12:56.225Z,12.56
2023-04-30T19:15:25.645Z,12.55
2023-04-30T19:17:54.608Z,12.53
2023-04-30T19:20:23.427Z,12.48
2023-04-30T19:22:52.184Z,12.41
2023-04-30T19:25:21.417Z,12.35
2023-04-30T19:27:50.181Z,12.29
2023-04-30T19:30:19.354Z,12.22
2023-04-30T19:32:48.218Z,12.17
2023-04-30T19:35:17.465Z,12.17
2023-04-30T19:37:46.427Z,12.17
2023-04-30T19:40:16.164Z,12.17
2023-04-30T19:42:46.256Z,12.15
2023-04-30T19:45:15.823Z,12.12
2023-04-30T19:47:44.773Z,12.10
2023-04-30T19:50:14.519Z,12.04
2023-04-30T19:52:43.508Z,11.97
2023-04-30T19:55:13.148Z,11.95
2023-04-30T19:57:41.975Z,11.95
2023-04-30T20:00:12.901Z,11.92
2023-04-30T20:02:42.036Z,11.89
2023-04-30T20:05:11.923Z,11.85
2023-04-30T20:07:40.692Z,11.82
2023-04-30T20:10:10.784Z,11.82
2023-04-30T20:12:39.675Z,11.80
2023-04-30T20:15:09.868Z,11.74
2023-04-30T20:17:38.674Z,11.69
2023-04-30T20:20:08.292Z,11.66
2023-04-30T20:22:37.186Z,11.64
2023-04-30T20:25:06.554Z,11.60
2023-04-30T20:27:35.433Z,11.56
2023-04-30T20:30:04.745Z,11.49
2023-04-30T20:32:34.654Z,11.43
2023-04-30T20:35:03.728Z,11.37
2023-04-30T20:37:33.040Z,11.33
2023-04-30T20:40:02.384Z,11.32
2023-04-30T20:42:31.303Z,11.32
2023-04-30T20:45:05.513Z,11.31
2023-04-30T20:47:34.756Z,11.30
2023-04-30T20:50:03.826Z,11.27
2023-04-30T20:52:32.593Z,11.24
2023-04-30T20:55:01.404Z,11.23
2023-04-30T20:57:30.304Z,11.19
2023-04-30T20:59:59.144Z,11.15
2023-04-30T21:02:28.255Z,11.12
2023-04-30T21:04:58.411Z,11.09
2023-04-30T21:07:27.526Z,11.07
2023-04-30T21:09:57.037Z,11.09
2023-04-30T21:12:26.840Z,11.07
2023-04-30T21:14:55.585Z,11.05
2023-04-30T21:17:24.554Z,10.99
2023-04-30T21:19:53.550Z,10.94
2023-04-30T21:22:22.573Z,10.89
2023-04-30T21:24:52.208Z,10.84
2023-04-30T21:27:21.006Z,10.87
2023-04-30T21:29:49.782Z,10.83
2023-04-30T21:32:18.747Z,10.80
2023-04-30T21:34:48.205Z,10.79
2023-04-30T21:37:17.461Z,10.77
2023-04-30T21:39:46.308Z,10.78
2023-04-30T21:42:15.082Z,10.76
2023-04-30T21:44:44.334Z,10.73
2023-04-30T21:47:13.140Z,10.72
2023-04-30T21:49:42.606Z,10.70
2023-04-30T21:52:11.573Z,10.70
2023-04-30T21:54:40.408Z,10.70
2023-04-30T21:57:09.196Z,10.69
2023-04-30T21:59:37.915Z,10.67
2023-04-30T22:02:19.999Z,10.66
2023-04-30T22:04:53.340Z,10.64
2023-04-30T22:07:22.812Z,10.60
2023-04-30T22:09:52.683Z,10.55
2023-04-30T22:12:24.927Z,10.51
2023-04-30T22:14:54.751Z,10.52
2023-04-30T22:17:23.534Z,10.50
2023-04-30T22:19:52.556Z,10.51
2023-04-30T22:22:24.719Z,10.49
2023-04-30T22:24:53.697Z,10.46
2023-04-30T22:27:23.121Z,10.44
2023-04-30T22:29:52.053Z,10.45
2023-04-30T22:32:20.852Z,10.44
2023-04-30T22:34:50.769Z,10.44
2023-04-30T22:37:19.959Z,10.42
2023-04-30T22:39:48.876Z,10.47
2023-04-30T22:42:18.105Z,10.48
2023-04-30T22:44:46.911Z,10.52
2023-04-30T22:47:16.139Z,10.54
2023-04-30T22:49:45.385Z,10.53
2023-04-30T22:52:14.265Z,10.54
2023-04-30T22:54:43.134Z,10.55
2023-04-30T22:57:12.109Z,10.53
2023-04-30T22:59:40.932Z,10.51
2023-04-30T23:02:09.613Z,10.48
2023-04-30T23:04:38.450Z,10.46
2023-04-30T23:07:07.599Z,10.47
2023-04-30T23:09:36.404Z,10.47
2023-04-30T23:12:05.541Z,10.45
2023-04-30T23:14:34.287Z,10.46
2023-04-30T23:17:03.245Z,10.46
2023-04-30T23:19:32.087Z,10.44
2023-04-30T23:22:00.957Z,10.35
2023-04-30T23:24:34.981Z,10.33
2023-04-30T23:27:03.741Z,10.32
2023-04-30T23:29:33.302Z,10.31
2023-04-30T23:32:04.392Z,10.30
2023-04-30T23:34:33.485Z,10.30
2023-04-30T23:37:02.369Z,10.28
2023-04-30T23:39:31.312Z,10.27
2023-04-30T23:42:00.276Z,10.24
2023-04-30T23:44:31.646Z,10.21
2023-04-30T23:47:01.839Z,10.19
2023-04-30T23:49:30.697Z,10.17
2023-04-30T23:51:59.813Z,10.18
2023-04-30T23:54:28.698Z,10.18
2023-04-30T23:56:57.499Z,10.20
2023-04-30T23:59:26.816Z,10.13
